createdAt,value
2018-02-22T00:00:37.054Z,-1.18
2018-02-22T00:03:04.642Z,-1.28
2018-02-22T00:05:32.290Z,-1.23
2018-02-22T00:07:59.921Z,-1.39
2018-02-22T00:10:27.542Z,-1.36
2018-02-22T00:12:55.162Z,-1.31
2018-02-22T00:15:22.746Z,-1.36
2018-02-22T00:17:50.335Z,-1.46
2018-02-22T00:20:17.922Z,-1.42
2018-02-22T00:22:45.502Z,-1.41
2018-02-22T00:25:13.087Z,-1.29
2018-02-22T00:27:40.682Z,-1.17
2018-02-22T00:30:08.266Z,-1.30
2018-02-22T00:32:35.859Z,-1.20
2018-02-22T00:35:03.450Z,-1.05
2018-02-22T00:37:31.038Z,-0.95
2018-02-22T00:39:58.627Z,-0.83
2018-02-22T00:42:26.274Z,-0.76
2018-02-22T00:44:53.850Z,-0.71
2018-02-22T00:47:21.468Z,-0.66
2018-02-22T00:49:49.054Z,-0.55
2018-02-22T00:52:16.684Z,-0.50
2018-02-22T00:54:44.266Z,-0.54
2018-02-22T00:57:11.854Z,-0.45
2018-02-22T00:59:39.442Z,-0.36
2018-02-22T01:02:07.072Z,-0.26
2018-02-22T01:04:34.667Z,-0.24
2018-02-22T01:07:02.254Z,-0.35
2018-02-22T01:09:29.839Z,-0.25
2018-02-22T01:11:57.426Z,-0.31
2018-02-22T01:14:25.010Z,-0.32
2018-02-22T01:16:52.602Z,-0.24
2018-02-22T01:19:20.187Z,-0.23
2018-02-22T01:21:47.778Z,-0.30
2018-02-22T01:24:15.374Z,-0.27
2018-02-22T01:26:42.966Z,-0.26
2018-02-22T01:29:10.589Z,-0.12
2018-02-22T01:31:38.183Z,-0.14
2018-02-22T01:34:05.768Z,-0.18
2018-02-22T01:36:33.357Z,-0.22
2018-02-22T01:39:00.946Z,-0.28
2018-02-22T01:41:28.573Z,-0.21
2018-02-22T01:43:56.162Z,-0.31
2018-02-22T01:46:23.752Z,-0.37
2018-02-22T01:48:51.349Z,-0.27
2018-02-22T01:51:18.941Z,-0.20
2018-02-22T01:53:46.530Z,-0.20
2018-02-22T01:56:15.058Z,-0.12
2018-02-22T01:58:42.648Z,-0.29
2018-02-22T02:01:10.234Z,-0.30
2018-02-22T02:03:37.824Z,-0.18
2018-02-22T02:06:05.411Z,-0.22
2018-02-22T02:08:33.004Z,-0.16
2018-02-22T02:11:00.590Z,-0.10
2018-02-22T02:13:28.190Z,-0.05
2018-02-22T02:15:55.782Z,0.00
2018-02-22T02:18:23.360Z,-0.01
2018-02-22T02:20:50.978Z,0.10
2018-02-22T02:23:18.571Z,-0.06
2018-02-22T02:25:46.192Z,0.03
2018-02-22T02:28:13.781Z,0.01
2018-02-22T02:30:41.371Z,-0.05
2018-02-22T02:33:08.991Z,-0.03
2018-02-22T02:35:36.624Z,0.06
2018-02-22T02:38:04.215Z,0.04
2018-02-22T02:40:31.833Z,-0.08
2018-02-22T02:42:59.424Z,-0.08
2018-02-22T02:45:27.020Z,-0.04
2018-02-22T02:47:54.606Z,-0.09
2018-02-22T02:50:22.187Z,-0.10
2018-02-22T02:52:49.782Z,-0.16
2018-02-22T02:55:17.514Z,-0.05
2018-02-22T02:57:45.102Z,0.05
2018-02-22T03:00:13.282Z,0.00
2018-02-22T03:02:40.918Z,-0.03
2018-02-22T03:05:08.516Z,-0.07
2018-02-22T03:07:36.109Z,-0.09
2018-02-22T03:10:03.690Z,-0.08
2018-02-22T03:12:31.277Z,-0.23
2018-02-22T03:14:58.868Z,-0.17
2018-02-22T03:17:27.049Z,-0.28
2018-02-22T03:19:54.634Z,-0.33
2018-02-22T03:22:22.231Z,-0.25
2018-02-22T03:24:49.827Z,-0.23
2018-02-22T03:27:17.418Z,-0.14
2018-02-22T03:29:45.008Z,-0.27
2018-02-22T03:32:12.598Z,-0.26
2018-02-22T03:34:40.191Z,-0.14
2018-02-22T03:37:07.774Z,-0.25
2018-02-22T03:39:35.451Z,-0.24
2018-02-22T03:42:03.048Z,-0.15
2018-02-22T03:44:30.635Z,-0.19
2018-02-22T03:46:58.259Z,-0.33
2018-02-22T03:49:25.848Z,-0.40
2018-02-22T03:51:53.477Z,-0.49
2018-02-22T03:54:21.098Z,-0.47
2018-02-22T03:56:48.696Z,-0.55
2018-02-22T03:59:16.283Z,-0.46
2018-02-22T04:01:43.966Z,-0.47
2018-02-22T04:04:11.568Z,-0.62
2018-02-22T04:06:39.155Z,-0.61
2018-02-22T04:09:06.750Z,-0.60
2018-02-22T04:11:34.348Z,-0.74
2018-02-22T04:14:01.942Z,-0.82
2018-02-22T04:16:29.574Z,-0.82
2018-02-22T04:18:57.168Z,-0.80
2018-02-22T04:21:24.757Z,-0.94
2018-02-22T04:23:52.337Z,-1.00
2018-02-22T04:26:19.925Z,-1.14
2018-02-22T04:28:47.507Z,-1.10
2018-02-22T04:31:15.094Z,-1.07
2018-02-22T04:33:42.758Z,-1.36
2018-02-22T04:36:10.342Z,-1.38
2018-02-22T04:38:37.926Z,-1.32
2018-02-22T04:41:05.509Z,-1.37
2018-02-22T04:43:33.126Z,-1.47
2018-02-22T04:46:00.722Z,-1.36
2018-02-22T04:48:28.338Z,-1.37
2018-02-22T04:50:55.926Z,-1.36
2018-02-22T04:53:24.227Z,-1.35
2018-02-22T04:55:51.811Z,-1.37
2018-02-22T04:58:19.434Z,-1.48
2018-02-22T05:00:47.023Z,-1.55
2018-02-22T05:03:14.606Z,-1.46
2018-02-22T05:05:42.227Z,-1.61
2018-02-22T05:08:09.813Z,-1.60
2018-02-22T05:10:37.441Z,-1.61
2018-02-22T05:13:05.035Z,-1.69
2018-02-22T05:15:32.619Z,-1.60
2018-02-22T05:18:00.171Z,-1.73
2018-02-22T05:20:27.778Z,-1.80
2018-02-22T05:22:55.338Z,-1.73
2018-02-22T05:25:22.894Z,-1.81
2018-02-22T05:27:50.454Z,-1.94
2018-02-22T05:30:18.077Z,-1.97
2018-02-22T05:32:45.637Z,-2.04
2018-02-22T05:35:13.197Z,-2.10
2018-02-22T05:37:40.756Z,-2.09
2018-02-22T05:40:08.328Z,-2.11
2018-02-22T05:42:35.900Z,-2.14
2018-02-22T05:45:03.454Z,-2.05
2018-02-22T05:47:31.007Z,-2.06
2018-02-22T05:49:58.561Z,-2.22
2018-02-22T05:52:26.122Z,-2.20
2018-02-22T05:54:53.688Z,-2.07
2018-02-22T05:57:21.241Z,-2.21
2018-02-22T05:59:48.804Z,-2.02
2018-02-22T06:02:16.364Z,-2.11
2018-02-22T06:04:43.928Z,-2.10
2018-02-22T06:07:11.489Z,-2.20
2018-02-22T06:09:39.125Z,-2.12
2018-02-22T06:12:06.675Z,-2.19
2018-02-22T06:14:34.236Z,-2.23
2018-02-22T06:17:01.829Z,-2.23
2018-02-22T06:19:29.396Z,-2.33
2018-02-22T06:21:56.959Z,-2.19
2018-02-22T06:24:24.518Z,-2.41
2018-02-22T06:26:52.077Z,-2.40
2018-02-22T06:29:19.632Z,-2.34
2018-02-22T06:31:47.199Z,-2.25
2018-02-22T06:34:14.804Z,-2.42
2018-02-22T06:36:42.403Z,-2.36
2018-02-22T06:39:09.983Z,-2.24
2018-02-22T06:41:37.544Z,-2.36
2018-02-22T06:44:05.103Z,-2.25
2018-02-22T06:46:32.667Z,-2.37
2018-02-22T06:49:00.234Z,-2.41
2018-02-22T06:51:27.791Z,-2.33
2018-02-22T06:53:55.390Z,-2.38
2018-02-22T06:56:22.950Z,-2.43
2018-02-22T06:58:50.531Z,-2.38
2018-02-22T07:01:30.417Z,-2.28
2018-02-22T07:06:48.138Z,-2.32
2018-02-22T07:09:15.775Z,-2.24
2018-02-22T07:11:43.332Z,-2.21
2018-02-22T07:14:10.903Z,-2.10
2018-02-22T07:16:38.499Z,-2.10
2018-02-22T07:19:06.059Z,-1.90
2018-02-22T07:21:33.614Z,-1.92
2018-02-22T07:24:01.172Z,-1.72
2018-02-22T07:26:28.725Z,-1.73
2018-02-22T07:28:56.289Z,-1.54
2018-02-22T07:31:23.853Z,-1.50
2018-02-22T07:33:51.410Z,-1.55
2018-02-22T07:36:19.845Z,-1.47
2018-02-22T07:38:47.397Z,-1.47
2018-02-22T07:41:14.955Z,-1.37
2018-02-22T07:43:42.550Z,-1.33
2018-02-22T07:46:10.163Z,-1.22
2018-02-22T07:48:37.728Z,-1.12
2018-02-22T07:51:05.292Z,-1.05
2018-02-22T07:53:32.903Z,-0.98
2018-02-22T07:56:00.455Z,-0.83
2018-02-22T07:58:28.022Z,-0.86
2018-02-22T08:00:55.583Z,-0.80
2018-02-22T08:03:23.144Z,-0.71
2018-02-22T08:05:50.700Z,-0.56
2018-02-22T08:08:18.557Z,-0.49
2018-02-22T08:10:46.175Z,-0.34
2018-02-22T08:13:13.741Z,-0.14
2018-02-22T08:15:41.342Z,-0.12
2018-02-22T08:18:08.915Z,-0.07
2018-02-22T08:20:36.531Z,0.14
2018-02-22T08:23:04.190Z,0.29
2018-02-22T08:25:31.751Z,0.33
2018-02-22T08:27:59.316Z,0.48
2018-02-22T08:30:26.885Z,0.52
2018-02-22T08:32:54.448Z,0.58
2018-02-22T08:35:22.004Z,0.77
2018-02-22T08:37:49.555Z,0.84
2018-02-22T08:40:17.110Z,0.85
2018-02-22T08:42:44.993Z,0.93
2018-02-22T08:45:12.637Z,0.95
2018-02-22T08:47:41.998Z,1.01
2018-02-22T08:50:09.560Z,0.99
2018-02-22T08:52:37.166Z,1.03
2018-02-22T08:55:04.721Z,1.07
2018-02-22T08:57:32.281Z,1.32
2018-02-22T08:59:59.838Z,1.31
2018-02-22T09:02:27.388Z,1.43
2018-02-22T09:04:54.940Z,1.50
2018-02-22T09:07:22.491Z,1.57
2018-02-22T09:09:50.053Z,1.64
2018-02-22T09:12:17.603Z,1.75
2018-02-22T09:14:45.195Z,1.88
2018-02-22T09:17:12.742Z,1.88
2018-02-22T09:19:40.333Z,1.97
2018-02-22T09:22:07.887Z,2.05
2018-02-22T09:24:35.492Z,2.03
2018-02-22T09:27:03.040Z,2.03
2018-02-22T09:29:30.591Z,2.13
2018-02-22T09:31:58.140Z,2.05
2018-02-22T09:34:25.696Z,2.19
2018-02-22T09:36:53.257Z,2.27
2018-02-22T09:39:20.810Z,2.41
2018-02-22T09:41:48.363Z,2.34
2018-02-22T09:44:15.912Z,2.54
2018-02-22T09:46:43.455Z,2.54
2018-02-22T09:49:11.002Z,2.52
2018-02-22T09:51:38.560Z,2.59
2018-02-22T09:54:06.111Z,2.61
2018-02-22T09:56:33.657Z,2.87
2018-02-22T09:59:01.211Z,2.83
2018-02-22T10:01:28.765Z,2.98
2018-02-22T10:03:56.364Z,2.91
2018-02-22T10:06:23.910Z,2.99
2018-02-22T10:08:51.449Z,3.09
2018-02-22T10:11:19.001Z,3.13
2018-02-22T10:13:46.551Z,3.05
2018-02-22T10:16:14.099Z,3.06
2018-02-22T10:18:41.639Z,3.19
2018-02-22T10:21:09.189Z,3.33
2018-02-22T10:23:36.775Z,3.30
2018-02-22T10:26:04.396Z,3.14
2018-02-22T10:28:31.993Z,3.19
2018-02-22T10:30:59.547Z,3.28
2018-02-22T10:33:27.128Z,3.44
2018-02-22T10:35:54.687Z,3.54
2018-02-22T10:38:22.271Z,3.56
2018-02-22T10:40:49.825Z,3.41
2018-02-22T10:43:17.374Z,3.71
2018-02-22T10:45:44.920Z,3.61
2018-02-22T10:48:12.462Z,3.76
2018-02-22T10:50:40.007Z,3.84
2018-02-22T10:53:07.563Z,3.76
2018-02-22T10:55:35.143Z,3.69
2018-02-22T10:58:02.735Z,3.89
2018-02-22T11:00:35.870Z,3.91
2018-02-22T11:03:03.416Z,3.78
2018-02-22T11:05:31.004Z,3.92
2018-02-22T11:07:58.542Z,3.88
2018-02-22T11:10:26.128Z,4.17
2018-02-22T11:12:53.674Z,3.95
2018-02-22T11:15:21.246Z,4.01
2018-02-22T11:17:48.795Z,4.08
2018-02-22T11:20:16.382Z,4.18
2018-02-22T11:22:43.926Z,4.08
2018-02-22T11:25:11.467Z,4.42
2018-02-22T11:27:39.005Z,4.60
2018-02-22T11:30:06.547Z,4.77
2018-02-22T11:32:34.132Z,4.80
2018-02-22T11:35:01.675Z,4.76
2018-02-22T11:37:29.224Z,4.57
2018-02-22T11:39:56.770Z,4.59
2018-02-22T11:42:24.356Z,4.56
2018-02-22T11:44:51.902Z,4.56
2018-02-22T11:47:19.483Z,4.49
2018-02-22T11:49:47.034Z,4.58
2018-02-22T11:52:14.640Z,4.59
2018-02-22T11:54:42.185Z,4.88
2018-02-22T11:57:09.730Z,4.87
2018-02-22T11:59:37.279Z,4.72
2018-02-22T12:02:04.884Z,4.47
2018-02-22T12:04:32.435Z,4.41
2018-02-22T12:06:59.987Z,4.35
2018-02-22T12:09:27.535Z,4.34
2018-02-22T12:11:55.083Z,4.50
2018-02-22T12:14:22.666Z,4.58
2018-02-22T12:16:50.215Z,4.81
2018-02-22T12:19:17.763Z,4.89
2018-02-22T12:21:45.311Z,4.67
2018-02-22T12:24:12.852Z,4.58
2018-02-22T12:26:40.395Z,4.66
2018-02-22T12:29:07.974Z,4.65
2018-02-22T12:31:35.524Z,4.62
2018-02-22T12:34:03.065Z,4.60
2018-02-22T12:36:30.606Z,4.65
2018-02-22T12:38:58.150Z,4.54
2018-02-22T12:41:25.698Z,4.39
2018-02-22T12:43:53.278Z,4.31
2018-02-22T12:46:20.860Z,4.46
2018-02-22T12:48:48.408Z,4.52
2018-02-22T12:51:16.008Z,4.60
2018-02-22T12:53:43.650Z,4.58
2018-02-22T12:56:11.195Z,4.57
2018-02-22T12:58:38.738Z,4.69
2018-02-22T13:01:06.280Z,4.78
2018-02-22T13:03:33.819Z,4.89
2018-02-22T13:06:01.364Z,4.88
2018-02-22T13:08:28.911Z,4.77
2018-02-22T13:10:56.451Z,4.54
2018-02-22T13:13:23.995Z,4.50
2018-02-22T13:15:51.538Z,4.37
2018-02-22T13:18:19.092Z,4.35
2018-02-22T13:20:46.639Z,4.35
2018-02-22T13:23:14.773Z,4.48
2018-02-22T13:25:42.321Z,4.59
2018-02-22T13:28:09.879Z,4.49
2018-02-22T13:30:37.426Z,4.48
2018-02-22T13:33:16.704Z,4.56
2018-02-22T13:35:44.267Z,4.45
2018-02-22T13:38:23.712Z,4.41
2018-02-22T13:40:51.250Z,4.43
2018-02-22T13:43:18.835Z,4.50
2018-02-22T13:45:46.384Z,4.46
2018-02-22T13:48:13.927Z,4.51
2018-02-22T13:50:53.305Z,4.68
2018-02-22T13:53:20.847Z,4.71
2018-02-22T13:55:48.387Z,4.52
2018-02-22T13:58:15.926Z,4.47
2018-02-22T14:00:55.279Z,4.48
2018-02-22T14:03:22.830Z,4.33
2018-02-22T14:05:50.370Z,4.41
2018-02-22T14:08:29.868Z,4.35
2018-02-22T14:10:57.523Z,4.40
2018-02-22T14:13:25.062Z,4.51
2018-02-22T14:15:52.608Z,4.44
2018-02-22T14:18:20.211Z,4.65
2018-02-22T14:20:47.751Z,4.40
2018-02-22T14:23:15.327Z,4.61
2018-02-22T14:25:42.886Z,4.58
2018-02-22T14:28:10.464Z,4.49
2018-02-22T14:30:38.016Z,4.29
2018-02-22T14:33:05.596Z,4.00
2018-02-22T14:35:33.139Z,4.24
2018-02-22T14:38:00.720Z,4.31
2018-02-22T14:40:28.268Z,4.55
2018-02-22T14:42:55.855Z,4.56
2018-02-22T14:45:23.404Z,4.53
2018-02-22T14:47:50.986Z,4.52
2018-02-22T14:50:18.564Z,4.43
2018-02-22T14:52:46.109Z,4.25
2018-02-22T14:55:13.695Z,4.19
2018-02-22T14:57:41.245Z,4.07
2018-02-22T15:00:08.820Z,3.87
2018-02-22T15:02:36.444Z,3.84
2018-02-22T15:05:03.987Z,3.84
2018-02-22T15:07:31.622Z,3.81
2018-02-22T15:09:59.179Z,3.67
2018-02-22T15:12:26.722Z,3.70
2018-02-22T15:14:54.263Z,3.57
2018-02-22T15:17:21.807Z,3.57
2018-02-22T15:19:49.391Z,3.58
2018-02-22T15:22:16.939Z,3.36
2018-02-22T15:24:44.531Z,3.25
2018-02-22T15:27:12.078Z,2.94
2018-02-22T15:29:39.667Z,2.95
2018-02-22T15:32:07.215Z,2.94
2018-02-22T15:34:34.807Z,2.95
2018-02-22T15:37:02.365Z,3.01
2018-02-22T15:39:29.908Z,2.95
2018-02-22T15:41:57.495Z,2.82
2018-02-22T15:44:25.039Z,2.92
2018-02-22T15:46:52.627Z,2.79
2018-02-22T15:49:20.175Z,2.75
2018-02-22T15:51:47.764Z,2.75
2018-02-22T15:54:15.308Z,2.60
2018-02-22T15:56:42.887Z,2.73
2018-02-22T15:59:10.503Z,2.74
2018-02-22T16:01:38.054Z,2.71
2018-02-22T16:04:05.635Z,2.57
2018-02-22T16:06:33.187Z,2.45
2018-02-22T16:09:00.765Z,2.53
2018-02-22T16:11:28.306Z,2.42
2018-02-22T16:13:55.887Z,2.36
2018-02-22T16:16:23.443Z,2.27
2018-02-22T16:18:51.027Z,2.11
2018-02-22T16:21:18.602Z,2.13
2018-02-22T16:23:46.220Z,2.10
2018-02-22T16:26:13.767Z,2.18
2018-02-22T16:28:41.326Z,1.98
2018-02-22T16:31:08.899Z,1.97
2018-02-22T16:33:36.439Z,2.02
2018-02-22T16:36:03.981Z,1.96
2018-02-22T16:38:31.529Z,1.81
2018-02-22T16:40:59.081Z,1.60
2018-02-22T16:43:26.627Z,1.54
2018-02-22T16:45:54.176Z,1.44
2018-02-22T16:48:21.734Z,1.55
2018-02-22T16:50:49.278Z,1.41
2018-02-22T16:53:16.831Z,1.44
2018-02-22T16:55:44.409Z,1.35
2018-02-22T16:58:11.951Z,1.34
2018-02-22T17:00:39.507Z,1.14
2018-02-22T17:03:07.054Z,1.12
2018-02-22T17:05:34.650Z,1.04
2018-02-22T17:08:02.201Z,1.01
2018-02-22T17:10:29.753Z,1.08
2018-02-22T17:12:57.298Z,1.00
2018-02-22T17:15:24.854Z,0.98
2018-02-22T17:17:52.402Z,0.91
2018-02-22T17:20:19.973Z,0.93
2018-02-22T17:22:47.535Z,0.89
2018-02-22T17:25:15.084Z,0.78
2018-02-22T17:27:48.188Z,0.83
2018-02-22T17:30:21.695Z,0.70
2018-02-22T17:32:49.255Z,0.72
2018-02-22T17:38:23.519Z,0.51
2018-02-22T17:40:53.906Z,0.48
2018-02-22T17:43:21.474Z,0.49
2018-02-22T17:45:49.060Z,0.44
2018-02-22T17:48:16.624Z,0.39
2018-02-22T17:50:44.220Z,0.38
2018-02-22T17:53:11.786Z,0.46
2018-02-22T17:55:39.383Z,0.41
2018-02-22T17:58:06.935Z,0.49
2018-02-22T18:00:35.635Z,0.49
2018-02-22T18:03:03.214Z,0.47
2018-02-22T18:05:30.766Z,0.54
2018-02-22T18:07:58.347Z,0.53
2018-02-22T18:10:25.891Z,0.55
2018-02-22T18:12:53.479Z,0.65
2018-02-22T18:15:21.037Z,0.54
2018-02-22T18:17:48.594Z,0.51
2018-02-22T18:20:16.155Z,0.47
2018-02-22T18:22:43.711Z,0.57
2018-02-22T18:25:11.267Z,0.52
2018-02-22T18:27:38.823Z,0.45
2018-02-22T18:30:06.374Z,0.43
2018-02-22T18:32:34.548Z,0.41
2018-02-22T18:35:02.133Z,0.33
2018-02-22T18:37:35.325Z,0.29
2018-02-22T18:40:08.591Z,0.24
2018-02-22T18:42:50.847Z,0.34
2018-02-22T18:45:18.388Z,0.41
2018-02-22T18:47:46.034Z,0.36
2018-02-22T18:50:13.590Z,0.36
2018-02-22T18:52:41.137Z,0.31
2018-02-22T18:55:08.734Z,0.26
2018-02-22T18:57:36.292Z,0.42
2018-02-22T19:00:04.495Z,0.32
2018-02-22T19:02:32.076Z,0.32
2018-02-22T19:04:59.642Z,0.37
2018-02-22T19:07:27.226Z,0.38
2018-02-22T19:09:54.775Z,0.24
2018-02-22T19:12:22.380Z,0.20
2018-02-22T19:14:49.939Z,0.28
2018-02-22T19:17:17.491Z,0.17
2018-02-22T19:19:45.040Z,0.17
2018-02-22T19:22:12.590Z,0.15
2018-02-22T19:24:40.136Z,0.12
2018-02-22T19:27:07.710Z,0.18
2018-02-22T19:29:35.259Z,0.18
2018-02-22T19:32:02.804Z,0.25
2018-02-22T19:34:30.355Z,0.22
2018-02-22T19:36:57.908Z,0.19
2018-02-22T19:39:25.463Z,0.12
2018-02-22T19:41:53.024Z,0.07
2018-02-22T19:44:20.613Z,0.17
2018-02-22T19:46:48.167Z,0.17
2018-02-22T19:49:15.737Z,0.16
2018-02-22T19:51:43.303Z,0.16
2018-02-22T19:54:11.071Z,0.14
2018-02-22T19:56:38.619Z,0.10
2018-02-22T19:59:06.179Z,0.00
2018-02-22T20:01:33.745Z,-0.09
2018-02-22T20:04:01.291Z,-0.14
2018-02-22T20:06:28.885Z,-0.21
2018-02-22T20:08:56.481Z,-0.30
2018-02-22T20:11:24.123Z,-0.31
2018-02-22T20:13:51.759Z,-0.31
2018-02-22T20:16:19.320Z,-0.28
2018-02-22T20:18:46.894Z,-0.24
2018-02-22T20:21:14.487Z,-0.32
2018-02-22T20:23:42.086Z,-0.29
2018-02-22T20:26:09.749Z,-0.37
2018-02-22T20:28:37.308Z,-0.33
2018-02-22T20:31:04.868Z,-0.39
2018-02-22T20:33:32.423Z,-0.26
2018-02-22T20:35:59.974Z,-0.38
2018-02-22T20:38:27.526Z,-0.35
2018-02-22T20:40:55.135Z,-0.28
2018-02-22T20:43:22.698Z,-0.24
2018-02-22T20:45:50.300Z,-0.27
2018-02-22T20:48:17.874Z,-0.07
2018-02-22T20:50:45.482Z,-0.18
2018-02-22T20:53:28.731Z,-0.25
2018-02-22T20:55:56.328Z,-0.20
2018-02-22T20:58:24.117Z,-0.25
2018-02-22T21:00:51.724Z,-0.23
2018-02-22T21:03:35.075Z,-0.29
2018-02-22T21:06:08.388Z,-0.26
2018-02-22T21:08:35.947Z,-0.35
2018-02-22T21:11:03.625Z,-0.33
2018-02-22T21:13:31.222Z,-0.16
2018-02-22T21:15:58.783Z,-0.12
2018-02-22T21:18:26.385Z,-0.23
2018-02-22T21:20:54.415Z,-0.26
2018-02-22T21:23:22.171Z,-0.28
2018-02-22T21:25:50.148Z,-0.30
2018-02-22T21:28:17.744Z,-0.31
2018-02-22T21:30:45.370Z,-0.32
2018-02-22T21:33:12.935Z,-0.25
2018-02-22T21:35:41.104Z,-0.23
2018-02-22T21:38:08.672Z,-0.25
2018-02-22T21:40:36.258Z,-0.35
2018-02-22T21:43:03.811Z,-0.39
2018-02-22T21:45:31.366Z,-0.31
2018-02-22T21:47:58.927Z,-0.41
2018-02-22T21:50:26.531Z,-0.42
2018-02-22T21:52:54.650Z,-0.30
2018-02-22T21:55:22.352Z,-0.15
2018-02-22T21:57:49.972Z,-0.30
2018-02-22T22:00:17.709Z,-0.29
2018-02-22T22:02:45.319Z,-0.39
2018-02-22T22:05:12.890Z,-0.31
2018-02-22T22:07:40.444Z,-0.36
2018-02-22T22:10:08.003Z,-0.30
2018-02-22T22:12:35.559Z,-0.28
2018-02-22T22:15:04.132Z,-0.30
2018-02-22T22:17:31.691Z,-0.29
2018-02-22T22:20:00.274Z,-0.29
2018-02-22T22:22:30.090Z,-0.30
2018-02-22T22:24:57.659Z,-0.33
2018-02-22T22:27:25.274Z,-0.35
2018-02-22T22:29:52.840Z,-0.36
2018-02-22T22:32:20.408Z,-0.47
2018-02-22T22:34:47.966Z,-0.35
2018-02-22T22:37:15.531Z,-0.41
2018-02-22T22:39:43.100Z,-0.35
2018-02-22T22:42:10.654Z,-0.38
2018-02-22T22:44:38.214Z,-0.35
2018-02-22T22:47:05.768Z,-0.35
2018-02-22T22:49:33.371Z,-0.51
2018-02-22T22:52:00.934Z,-0.39
2018-02-22T22:54:28.535Z,-0.48
2018-02-22T22:56:56.105Z,-0.64
2018-02-22T22:59:23.712Z,-0.74
2018-02-22T23:01:51.267Z,-0.87
2018-02-22T23:04:18.827Z,-0.99
2018-02-22T23:06:46.386Z,-0.96
2018-02-22T23:09:13.989Z,-1.16
2018-02-22T23:11:41.552Z,-1.23
2018-02-22T23:14:09.106Z,-1.25
2018-02-22T23:16:36.667Z,-1.23
2018-02-22T23:19:04.235Z,-1.41
2018-02-22T23:21:31.790Z,-1.50
2018-02-22T23:23:59.363Z,-1.62
2018-02-22T23:26:27.199Z,-1.82
2018-02-22T23:28:54.763Z,-1.86
2018-02-22T23:31:22.322Z,-1.93
2018-02-22T23:33:49.878Z,-1.85
2018-02-22T23:36:17.437Z,-1.94
2018-02-22T23:38:46.494Z,-1.90
2018-02-22T23:41:18.558Z,-1.96
2018-02-22T23:43:46.117Z,-2.01
2018-02-22T23:46:13.960Z,-2.07
2018-02-22T23:48:41.552Z,-1.89
2018-02-22T23:51:09.108Z,-1.91
2018-02-22T23:53:36.697Z,-2.12
2018-02-22T23:56:04.257Z,-2.18
2018-02-22T23:58:31.856Z,-2.13
